Time;durP1;ratioP1;P1;durP2;ratioP2;P2;SDS_P1;SDS_P2;PMS_P1;PMS_P2;Temp;Humidity;BMP_temperature;BMP_pressure;BME280_temperature;BME280_humidity;BME280_pressure;Samples;Min_cycle;Max_cycle;Signal;HPM_P1;HPM_P2
2022/09/20 00:01:23;;;;;;;7.53;1.60;;;10.70;99.90;;;;;;4978452;28;20049;-66
2022/09/20 00:03:54;;;;;;;12.13;1.38;;;10.70;99.90;;;;;;4974880;28;20152;-67
2022/09/20 00:06:22;;;;;;;11.77;1.60;;;10.60;99.90;;;;;;4978378;28;20078;-67
2022/09/20 00:08:48;;;;;;;8.82;1.55;;;10.60;99.90;;;;;;4996078;28;20040;-67
2022/09/20 00:11:17;;;;;;;11.32;2.13;;;10.60;99.90;;;;;;4978631;28;20125;-67
2022/09/20 00:13:44;;;;;;;13.18;1.52;;;10.60;99.90;;;;;;4962408;28;20088;-67
2022/09/20 00:16:16;;;;;;;8.02;1.70;;;10.60;99.90;;;;;;4978549;28;20038;-67
2022/09/20 00:18:42;;;;;;;8.93;1.60;;;10.60;99.90;;;;;;4978292;28;20100;-67
2022/09/20 00:21:16;;;;;;;7.03;1.33;;;10.50;99.90;;;;;;4978589;28;20034;-67
2022/09/20 00:23:41;;;;;;;8.35;1.50;;;10.50;99.90;;;;;;4978427;28;20132;-67
2022/09/20 00:26:07;;;;;;;11.13;1.38;;;10.40;99.90;;;;;;4961027;28;20472;-67
2022/09/20 00:28:33;;;;;;;8.75;1.30;;;10.40;99.90;;;;;;4978040;28;20154;-67
2022/09/20 00:30:59;;;;;;;8.40;1.23;;;10.40;99.90;;;;;;4977976;28;20414;-67
2022/09/20 00:35:06;;;;;;;12.38;1.95;;;10.30;99.90;;;;;;4977976;28;20459;-67
2022/09/20 00:36:11;;;;;;;13.25;2.45;;;10.30;99.90;;;;;;4977927;28;20046;-67
2022/09/20 00:38:36;;;;;;;6.28;1.33;;;10.30;99.90;;;;;;4977895;28;20046;-67
2022/09/20 00:41:02;;;;;;;11.10;1.38;;;10.30;99.90;;;;;;4977918;28;20042;-67
2022/09/20 00:43:40;;;;;;;6.90;1.88;;;10.30;99.90;;;;;;4977788;28;20050;-67
2022/09/20 00:46:33;;;;;;;10.38;1.02;;;10.30;99.90;;;;;;4977639;28;20046;-67
2022/09/20 00:49:04;;;;;;;10.10;1.73;;;10.20;99.90;;;;;;4977718;28;20053;-67
2022/09/20 00:51:32;;;;;;;11.30;1.70;;;10.10;99.90;;;;;;4977625;28;20125;-67
2022/09/20 00:54:00;;;;;;;10.27;1.33;;;10.10;99.90;;;;;;4995241;28;20129;-67
2022/09/20 00:56:31;;;;;;;9.48;2.00;;;10.10;99.90;;;;;;4977382;28;20452;-67
2022/09/20 00:59:17;;;;;;;8.55;1.30;;;10.10;99.90;;;;;;4977555;28;20050;-67
2022/09/20 01:01:47;;;;;;;11.73;1.80;;;10.20;99.90;;;;;;4977412;28;20113;-67
2022/09/20 01:04:15;;;;;;;9.25;1.73;;;10.10;99.90;;;;;;4977385;28;20082;-67
2022/09/20 01:06:43;;;;;;;9.90;1.90;;;10.10;99.90;;;;;;4977289;28;20046;-67
2022/09/20 01:09:09;;;;;;;6.45;1.23;;;10.10;99.90;;;;;;4977573;28;20046;-67
2022/09/20 01:11:36;;;;;;;10.45;1.27;;;10.10;99.90;;;;;;4977258;28;20450;-67
2022/09/20 01:14:02;;;;;;;11.15;1.27;;;10.00;99.90;;;;;;4977186;28;20491;-67
2022/09/20 01:16:29;;;;;;;7.75;1.50;;;10.00;99.90;;;;;;4976930;28;20062;-67
2022/09/20 01:18:59;;;;;;;10.25;1.52;;;10.00;99.90;;;;;;4977132;28;20057;-67
2022/09/20 01:21:25;;;;;;;14.32;1.85;;;10.00;99.90;;;;;;4977116;28;20499;-67
2022/09/20 01:24:04;;;;;;;11.38;1.50;;;9.90;99.90;;;;;;4976988;28;20047;-67
2022/09/20 01:26:48;;;;;;;7.95;1.15;;;10.00;99.90;;;;;;4977207;28;20525;-67
2022/09/20 01:29:25;;;;;;;5.82;0.95;;;10.00;99.90;;;;;;4976957;28;20042;-67
2022/09/20 01:31:55;;;;;;;8.73;1.38;;;9.90;99.90;;;;;;4976874;28;20057;-67
2022/09/20 01:34:31;;;;;;;10.02;1.08;;;10.00;99.90;;;;;;4976848;28;20042;-67
2022/09/20 01:37:33;;;;;;;6.93;1.17;;;10.00;99.90;;;;;;4976501;28;20042;-67
2022/09/20 01:40:10;;;;;;;9.93;1.52;;;10.00;99.90;;;;;;4976745;28;20057;-67
2022/09/20 01:42:37;;;;;;;8.25;1.23;;;10.00;99.90;;;;;;4976965;28;20038;-67
2022/09/20 01:45:29;;;;;;;9.63;1.30;;;10.00;99.90;;;;;;4976588;28;20503;-67
2022/09/20 01:48:13;;;;;;;8.02;1.20;;;10.00;99.90;;;;;;4976551;28;20074;-67
2022/09/20 01:51:09;;;;;;;13.55;1.67;;;10.00;99.90;;;;;;4976578;28;20415;-67
2022/09/20 01:53:46;;;;;;;9.63;1.38;;;10.00;99.90;;;;;;4976637;28;20053;-67
2022/09/20 01:56:40;;;;;;;9.65;1.83;;;10.00;99.90;;;;;;4976394;28;20507;-67
2022/09/20 01:59:47;;;;;;;8.32;1.50;;;10.00;99.90;;;;;;4976471;28;20050;-67
2022/09/20 02:02:34;;;;;;;11.35;1.73;;;10.00;99.90;;;;;;4976416;28;20104;-67
2022/09/20 02:05:42;;;;;;;8.50;1.40;;;9.90;99.90;;;;;;4976397;28;20507;-67
2022/09/20 02:08:18;;;;;;;8.18;1.45;;;10.00;99.90;;;;;;4976318;28;20049;-67
2022/09/20 02:11:16;;;;;;;6.63;1.20;;;9.90;99.90;;;;;;4976479;28;20117;-67
2022/09/20 02:14:02;;;;;;;7.53;1.00;;;9.90;99.90;;;;;;4976349;28;20038;-67
2022/09/20 02:16:55;;;;;;;7.20;1.55;;;9.90;99.90;;;;;;4976153;28;20082;-67
2022/09/20 02:19:48;;;;;;;9.68;1.30;;;9.90;99.90;;;;;;4976300;28;20519;-67
2022/09/20 02:22:26;;;;;;;8.88;1.60;;;9.90;99.90;;;;;;4976264;28;20525;-67
2022/09/20 02:24:57;;;;;;;8.02;1.40;;;9.90;99.90;;;;;;4976287;28;20042;-67
2022/09/20 02:27:41;;;;;;;7.80;1.45;;;9.80;99.90;;;;;;4976229;28;20038;-67
2022/09/20 02:30:37;;;;;;;7.90;1.30;;;9.80;99.90;;;;;;4976165;28;20073;-67
2022/09/20 02:33:11;;;;;;;12.40;1.70;;;9.90;99.90;;;;;;4960115;28;20034;-67
2022/09/20 02:35:59;;;;;;;7.85;1.77;;;9.70;99.90;;;;;;4976158;28;20049;-67
2022/09/20 02:38:56;;;;;;;8.20;1.38;;;9.80;99.90;;;;;;4976038;28;20039;-67
2022/09/20 02:41:50;;;;;;;10.02;1.70;;;9.70;99.90;;;;;;4977004;28;20038;-67
2022/09/20 02:44:50;;;;;;;10.88;1.08;;;9.70;99.90;;;;;;4959984;28;20558;-67
2022/09/20 02:47:38;;;;;;;9.05;1.58;;;9.70;99.90;;;;;;4975975;28;20046;-67
2022/09/20 02:50:34;;;;;;;8.50;1.35;;;9.70;99.90;;;;;;4977752;28;20519;-67
2022/09/20 02:53:38;;;;;;;8.90;1.20;;;9.70;99.90;;;;;;4980171;28;20054;-67
2022/09/20 02:56:17;;;;;;;9.02;1.33;;;9.70;99.90;;;;;;4979742;28;20092;-67
2022/09/20 02:59:02;;;;;;;9.55;1.50;;;9.70;99.90;;;;;;4980024;28;20395;-67
2022/09/20 03:01:58;;;;;;;5.97;0.93;;;9.60;99.90;;;;;;4979735;28;20054;-67
2022/09/20 03:04:55;;;;;;;5.38;0.98;;;9.70;99.90;;;;;;4979642;28;20046;-67
2022/09/20 03:07:31;;;;;;;7.53;1.10;;;9.60;99.90;;;;;;4979541;28;20054;-67
2022/09/20 03:10:12;;;;;;;6.05;0.98;;;9.50;99.90;;;;;;4979502;28;20030;-67
2022/09/20 03:13:03;;;;;;;6.38;1.10;;;9.60;99.90;;;;;;4979450;28;20042;-67
2022/09/20 03:16:02;;;;;;;6.00;1.05;;;9.60;99.90;;;;;;4979388;28;20399;-67
2022/09/20 03:19:05;;;;;;;6.22;1.25;;;9.60;99.90;;;;;;4979189;28;20050;-67
2022/09/20 03:21:53;;;;;;;5.03;0.90;;;9.60;99.90;;;;;;4979463;28;20046;-67
2022/09/20 03:24:49;;;;;;;4.22;0.90;;;9.60;99.90;;;;;;4979178;28;20073;-67
2022/09/20 03:27:31;;;;;;;7.57;1.60;;;9.60;99.90;;;;;;4979350;28;20046;-67
2022/09/20 03:30:27;;;;;;;7.15;1.08;;;9.70;99.90;;;;;;4979132;28;20414;-67
2022/09/20 03:33:14;;;;;;;10.20;1.63;;;9.60;99.90;;;;;;4979063;28;20042;-67
2022/09/20 03:35:48;;;;;;;7.10;1.02;;;9.60;99.90;;;;;;4979275;28;20517;-67
2022/09/20 03:38:38;;;;;;;7.90;1.10;;;9.70;99.90;;;;;;4978927;28;20042;-67
2022/09/20 03:41:04;;;;;;;11.25;1.25;;;9.70;99.90;;;;;;4979010;28;20049;-67
2022/09/20 03:43:45;;;;;;;8.20;1.20;;;9.80;99.90;;;;;;4978919;28;20038;-67
2022/09/20 03:46:14;;;;;;;9.95;1.17;;;9.80;99.90;;;;;;4962909;28;20054;-67
2022/09/20 03:49:08;;;;;;;7.60;1.27;;;9.90;99.90;;;;;;4979045;28;20090;-67
2022/09/20 03:51:44;;;;;;;6.72;0.82;;;9.90;99.90;;;;;;4978733;28;20526;-67
2022/09/20 03:54:47;;;;;;;6.13;1.10;;;9.90;99.90;;;;;;4978780;28;20050;-67
2022/09/20 03:57:38;;;;;;;9.75;1.40;;;10.00;99.90;;;;;;4978624;28;20046;-67
2022/09/20 04:00:10;;;;;;;6.10;1.20;;;10.10;99.90;;;;;;4962633;28;20057;-67
2022/09/20 04:02:46;;;;;;;11.17;1.33;;;10.10;99.90;;;;;;4978667;28;20049;-67
2022/09/20 04:05:18;;;;;;;7.45;1.48;;;10.10;99.90;;;;;;4978583;28;20114;-67
2022/09/20 04:08:04;;;;;;;7.57;1.33;;;10.20;99.90;;;;;;4978489;28;20044;-67
2022/09/20 04:10:49;;;;;;;7.75;1.65;;;10.20;99.90;;;;;;4978464;28;20050;-67
2022/09/20 04:13:30;;;;;;;8.25;1.55;;;10.30;99.90;;;;;;4978334;28;20078;-67
2022/09/20 04:16:18;;;;;;;5.28;1.00;;;10.30;99.90;;;;;;4978307;28;20050;-67
2022/09/20 04:19:02;;;;;;;5.47;0.90;;;10.30;99.90;;;;;;4978555;28;20050;-67
2022/09/20 04:21:48;;;;;;;12.15;1.33;;;10.30;99.90;;;;;;4978169;28;20046;-67
2022/09/20 04:24:28;;;;;;;7.07;1.25;;;10.40;99.90;;;;;;4978422;28;20042;-67
2022/09/20 04:27:26;;;;;;;8.30;1.35;;;10.40;99.90;;;;;;4978083;28;20038;-67
2022/09/20 04:30:00;;;;;;;4.53;0.90;;;10.50;99.90;;;;;;4978100;28;20056;-67
2022/09/20 04:33:02;;;;;;;7.78;1.52;;;10.50;99.90;;;;;;4978023;28;20042;-67
2022/09/20 04:39:02;;;;;;;7.30;1.13;;;10.50;99.90;;;;;;4977844;28;20558;-67
2022/09/20 04:41:36;;;;;;;7.65;1.00;;;10.50;99.90;;;;;;4995509;28;20050;-67
2022/09/20 04:44:44;;;;;;;7.97;1.23;;;10.50;99.90;;;;;;4977819;28;20046;-67
2022/09/20 04:47:55;;;;;;;10.95;1.27;;;10.60;99.90;;;;;;4977661;28;20042;-67
2022/09/20 04:50:39;;;;;;;7.35;1.23;;;10.60;99.90;;;;;;4953581;28;20096;-67
2022/09/20 04:53:49;;;;;;;6.80;1.00;;;10.60;99.90;;;;;;4977604;28;20038;-67
2022/09/20 04:56:28;;;;;;;4.32;1.08;;;10.60;99.90;;;;;;4881465;29;20576;-67
2022/09/20 04:59:09;;;;;;;6.13;0.75;;;10.60;99.90;;;;;;4966430;28;20104;-67
2022/09/20 05:02:11;;;;;;;6.82;1.10;;;10.70;99.90;;;;;;4977423;28;20038;-67
2022/09/20 05:05:01;;;;;;;6.90;1.10;;;10.70;99.90;;;;;;4977368;28;20050;-67
2022/09/20 05:07:48;;;;;;;3.65;0.75;;;10.70;99.90;;;;;;4977314;28;20045;-67
2022/09/20 05:10:26;;;;;;;6.07;1.02;;;10.70;99.90;;;;;;4961254;28;20046;-67
2022/09/20 05:13:14;;;;;;;4.82;0.90;;;10.70;99.90;;;;;;4977165;28;20054;-67
2022/09/20 05:15:53;;;;;;;4.47;0.98;;;10.70;99.90;;;;;;4977176;28;20043;-67
2022/09/20 05:18:49;;;;;;;8.05;1.08;;;10.60;99.90;;;;;;4976987;28;20117;-67
2022/09/20 05:21:36;;;;;;;4.90;1.00;;;10.70;99.90;;;;;;4961065;28;20054;-67
2022/09/20 05:24:12;;;;;;;5.35;0.82;;;10.70;99.90;;;;;;4977354;28;20488;-67
2022/09/20 05:27:03;;;;;;;7.38;1.23;;;10.70;99.90;;;;;;4977234;28;20080;-67
2022/09/20 05:30:08;;;;;;;6.68;0.85;;;10.70;99.90;;;;;;4977246;28;20064;-67
2022/09/20 05:32:45;;;;;;;5.35;0.88;;;10.70;99.90;;;;;;4976978;28;20053;-68
2022/09/20 05:35:32;;;;;;;7.15;1.10;;;10.70;99.90;;;;;;4976854;28;20034;-67
2022/09/20 05:38:39;;;;;;;6.70;1.00;;;10.70;99.90;;;;;;4977082;28;20061;-67
2022/09/20 05:41:33;;;;;;;5.18;0.90;;;10.80;99.90;;;;;;4976712;28;20070;-67
2022/09/20 05:44:30;;;;;;;8.45;1.05;;;10.80;99.90;;;;;;4976779;28;20483;-67
2022/09/20 05:47:30;;;;;;;5.82;1.20;;;10.80;99.90;;;;;;4976677;28;20038;-67
2022/09/20 05:50:07;;;;;;;6.90;0.98;;;10.90;99.90;;;;;;4976721;28;20546;-67
2022/09/20 05:53:24;;;;;;;6.32;1.00;;;10.90;99.90;;;;;;4976585;28;20045;-67
2022/09/20 05:56:04;;;;;;;6.00;0.80;;;11.00;99.90;;;;;;4971976;28;20125;-66
2022/09/20 05:58:48;;;;;;;5.72;0.90;;;11.00;99.90;;;;;;4960336;28;20045;-66
2022/09/20 06:01:22;;;;;;;5.25;1.13;;;11.00;99.90;;;;;;4976418;28;20086;-66
2022/09/20 06:04:07;;;;;;;5.05;0.90;;;11.00;99.90;;;;;;4976432;28;20043;-66
2022/09/20 06:06:45;;;;;;;5.25;1.00;;;11.10;99.90;;;;;;4977384;28;20101;-67
2022/09/20 06:09:20;;;;;;;5.18;1.10;;;11.10;99.90;;;;;;4976662;28;20053;-67
2022/09/20 06:12:02;;;;;;;5.90;1.00;;;11.10;99.90;;;;;;4976390;28;20527;-67
2022/09/20 06:14:44;;;;;;;4.15;0.80;;;11.10;99.90;;;;;;4976356;28;20038;-67
2022/09/20 06:17:15;;;;;;;8.07;1.17;;;11.20;99.90;;;;;;4976724;28;20046;-67
2022/09/20 06:20:19;;;;;;;6.53;1.00;;;11.20;99.90;;;;;;4960236;28;20058;-66
2022/09/20 06:22:58;;;;;;;5.18;1.15;;;11.20;99.90;;;;;;4976509;28;20427;-66
2022/09/20 06:26:02;;;;;;;4.45;0.80;;;11.20;99.90;;;;;;4978727;28;20121;-67
2022/09/20 06:28:40;;;;;;;11.32;1.30;;;11.20;99.90;;;;;;4980524;28;20049;-67
2022/09/20 06:31:07;;;;;;;8.20;1.23;;;11.30;99.90;;;;;;4980406;28;20042;-67
2022/09/20 06:33:41;;;;;;;9.45;1.20;;;11.20;99.90;;;;;;4964440;28;20064;-67
2022/09/20 06:42:29;;;;;;;8.40;1.40;;;11.30;99.90;;;;;;4979875;28;20058;-67
2022/09/20 06:44:55;;;;;;;6.60;1.10;;;11.30;99.90;;;;;;4963861;28;20034;-67
2022/09/20 06:47:25;;;;;;;7.25;1.33;;;11.30;99.90;;;;;;4980216;28;20092;-67
2022/09/20 06:49:50;;;;;;;9.10;1.02;;;11.40;99.90;;;;;;4980048;28;20050;-67
2022/09/20 06:52:17;;;;;;;5.57;1.38;;;11.40;99.90;;;;;;4979888;28;20046;-66
2022/09/20 06:54:45;;;;;;;6.80;1.30;;;11.40;99.90;;;;;;4979736;28;20053;-67
2022/09/20 06:57:17;;;;;;;7.80;1.00;;;11.50;99.90;;;;;;4979690;28;20046;-67
2022/09/20 06:59:44;;;;;;;6.03;0.90;;;11.50;99.90;;;;;;4979826;28;20046;-67
2022/09/20 07:02:10;;;;;;;6.75;1.00;;;11.50;99.90;;;;;;4979815;28;20137;-67
2022/09/20 07:04:36;;;;;;;7.55;1.20;;;11.50;99.90;;;;;;4979634;28;20121;-67
2022/09/20 07:07:03;;;;;;;5.18;1.10;;;11.60;99.90;;;;;;4979720;28;20035;-67
2022/09/20 07:09:29;;;;;;;8.05;1.45;;;11.60;99.90;;;;;;4979851;28;20078;-67
2022/09/20 07:11:56;;;;;;;7.25;0.90;;;11.60;99.90;;;;;;4979766;28;20034;-67
2022/09/20 07:14:22;;;;;;;5.88;1.13;;;11.60;99.90;;;;;;4979411;28;20517;-67
2022/09/20 07:16:47;;;;;;;8.13;1.02;;;11.70;99.90;;;;;;4979244;28;20054;-67
2022/09/20 07:19:13;;;;;;;9.52;1.40;;;11.60;99.90;;;;;;4979417;28;20112;-69
2022/09/20 07:21:39;;;;;;;7.60;1.30;;;11.60;99.90;;;;;;4963183;28;20129;-67
2022/09/20 07:24:04;;;;;;;7.05;1.33;;;11.70;99.90;;;;;;4979257;28;20487;-67
2022/09/20 07:26:30;;;;;;;6.68;1.30;;;11.70;99.90;;;;;;4979445;28;20073;-70
2022/09/20 07:28:58;;;;;;;8.85;1.20;;;11.80;99.90;;;;;;4979092;28;20526;-70
2022/09/20 07:31:25;;;;;;;8.18;1.23;;;11.90;99.90;;;;;;4979155;28;20050;-70
2022/09/20 07:33:50;;;;;;;7.32;1.23;;;12.00;99.90;;;;;;4979132;28;20042;-70
2022/09/20 07:36:16;;;;;;;9.10;1.58;;;12.00;99.90;;;;;;4978527;28;20050;-70
2022/09/20 07:38:47;;;;;;;11.30;1.52;;;12.20;99.90;;;;;;4978998;28;20038;-70
2022/09/20 07:41:12;;;;;;;11.45;1.67;;;12.20;99.90;;;;;;4978912;28;20122;-70
2022/09/20 07:43:38;;;;;;;9.13;1.48;;;12.30;99.90;;;;;;4978928;28;20164;-70
2022/09/20 07:46:04;;;;;;;9.73;1.55;;;12.40;99.90;;;;;;4978912;28;20124;-70
2022/09/20 07:48:32;;;;;;;6.10;1.25;;;12.50;99.90;;;;;;4978755;28;20034;-70
2022/09/20 07:51:01;;;;;;;11.20;1.85;;;12.60;99.90;;;;;;4979013;28;20060;-70
2022/09/20 07:53:28;;;;;;;7.45;1.30;;;12.70;99.90;;;;;;4979002;28;20042;-70
2022/09/20 07:56:00;;;;;;;9.38;1.40;;;12.80;99.90;;;;;;4978679;28;20498;-70
2022/09/20 07:58:29;;;;;;;9.30;1.20;;;12.90;99.90;;;;;;4978605;28;20038;-70
2022/09/20 08:00:59;;;;;;;6.40;1.33;;;13.00;99.90;;;;;;4978576;28;20046;-70
2022/09/20 08:03:25;;;;;;;5.90;1.00;;;13.10;99.90;;;;;;4978872;28;20105;-70
2022/09/20 08:05:57;;;;;;;6.88;0.90;;;13.20;99.90;;;;;;4978504;28;20038;-70
2022/09/20 08:08:23;;;;;;;7.30;1.05;;;13.30;99.90;;;;;;4978707;28;20034;-70
2022/09/20 08:10:49;;;;;;;7.50;1.20;;;13.40;99.90;;;;;;4978495;28;20093;-70
2022/09/20 08:13:15;;;;;;;7.57;1.45;;;13.50;99.90;;;;;;4978318;28;20042;-70
2022/09/20 08:15:41;;;;;;;8.10;1.35;;;13.60;99.90;;;;;;4978401;28;20044;-70
2022/09/20 08:18:08;;;;;;;6.75;0.98;;;13.70;99.90;;;;;;4961970;28;20133;-70
2022/09/20 08:20:39;;;;;;;7.32;1.00;;;13.80;99.90;;;;;;4978418;28;20499;-70
2022/09/20 08:23:05;;;;;;;6.65;1.23;;;14.10;99.90;;;;;;4978216;28;20038;-70
2022/09/20 08:25:31;;;;;;;6.78;0.80;;;14.20;99.90;;;;;;4978357;28;20031;-70
2022/09/20 08:27:57;;;;;;;9.25;1.50;;;14.40;99.90;;;;;;4978039;28;20122;-70
2022/09/20 08:30:23;;;;;;;4.78;0.95;;;14.50;99.90;;;;;;4978087;28;20047;-70
2022/09/20 08:32:48;;;;;;;9.00;1.10;;;14.60;99.90;;;;;;4977969;28;20038;-70
2022/09/20 08:35:14;;;;;;;4.80;1.13;;;14.70;99.90;;;;;;4977937;28;20038;-70
2022/09/20 08:37:42;;;;;;;5.20;1.00;;;14.80;99.90;;;;;;4961806;28;20038;-70
2022/09/20 08:40:14;;;;;;;5.28;0.75;;;15.00;99.90;;;;;;4977806;28;20039;-70
2022/09/20 08:42:43;;;;;;;5.90;0.90;;;15.40;99.90;;;;;;4977912;28;20054;-70
2022/09/20 08:45:21;;;;;;;6.70;0.90;;;15.90;99.90;;;;;;4977790;28;20053;-70
2022/09/20 08:47:52;;;;;;;4.38;0.90;;;16.40;99.90;;;;;;4976871;28;20046;-70
2022/09/20 08:50:18;;;;;;;4.32;1.13;;;16.70;99.90;;;;;;4977950;28;20050;-70
2022/09/20 08:52:51;;;;;;;6.63;1.10;;;17.20;99.90;;;;;;4977652;28;20132;-70
2022/09/20 08:55:23;;;;;;;6.18;1.23;;;17.70;99.90;;;;;;4977619;28;20144;-70
2022/09/20 08:57:53;;;;;;;5.18;0.90;;;18.20;99.90;;;;;;4977741;28;20074;-71
2022/09/20 09:00:22;;;;;;;5.30;0.90;;;18.80;99.90;;;;;;4977350;28;20418;-69
2022/09/20 09:02:52;;;;;;;4.50;0.75;;;19.40;99.90;;;;;;4977413;28;20514;-69
2022/09/20 09:05:30;;;;;;;4.70;0.77;;;20.00;98.20;;;;;;4977611;28;20104;-69
2022/09/20 09:07:59;;;;;;;4.38;1.08;;;20.70;99.60;;;;;;4977333;28;20045;-67
2022/09/20 09:10:28;;;;;;;6.95;0.90;;;21.50;92.40;;;;;;4977334;28;20551;-67
2022/09/20 09:12:54;;;;;;;3.88;0.80;;;22.10;87.90;;;;;;4977310;28;20042;-67
2022/09/20 09:15:32;;;;;;;5.95;0.80;;;22.70;80.30;;;;;;4977253;28;20126;-67
2022/09/20 09:17:57;;;;;;;5.43;1.02;;;23.20;76.70;;;;;;4976988;28;20046;-67
2022/09/20 09:20:24;;;;;;;6.25;1.10;;;23.60;71.40;;;;;;4976968;28;20040;-67
2022/09/20 09:23:07;;;;;;;4.95;0.90;;;23.50;66.60;;;;;;4977129;28;20042;-67
2022/09/20 09:25:40;;;;;;;6.97;1.00;;;23.50;70.60;;;;;;4961229;28;20042;-67
2022/09/20 09:28:06;;;;;;;5.30;1.02;;;23.20;69.50;;;;;;4976966;28;20050;-67
2022/09/20 09:30:31;;;;;;;6.72;1.33;;;23.30;70.40;;;;;;4977167;28;20046;-67
2022/09/20 09:33:16;;;;;;;3.88;0.80;;;23.30;71.10;;;;;;4976987;28;20396;-67
2022/09/20 09:35:44;;;;;;;6.28;0.80;;;23.50;71.40;;;;;;4976855;28;20492;-67
2022/09/20 09:38:17;;;;;;;6.97;1.15;;;23.60;69.50;;;;;;4976797;28;20046;-67
2022/09/20 09:40:50;;;;;;;7.55;1.27;;;23.70;66.40;;;;;;4976822;28;20040;-67
2022/09/20 09:43:23;;;;;;;8.85;0.90;;;23.80;66.00;;;;;;4976780;28;20042;-67
2022/09/20 09:45:48;;;;;;;6.95;1.30;;;23.80;66.50;;;;;;4976754;28;20038;-67
2022/09/20 09:48:28;;;;;;;6.15;1.10;;;23.90;67.00;;;;;;4994088;28;20042;-67
2022/09/20 09:51:11;;;;;;;6.35;0.68;;;23.80;65.10;;;;;;4976687;28;20126;-67
2022/09/20 09:53:38;;;;;;;6.82;1.10;;;23.30;66.80;;;;;;4976668;28;20126;-67
2022/09/20 09:56:21;;;;;;;8.63;1.17;;;22.60;68.90;;;;;;4976540;28;20046;-67
2022/09/20 09:59:16;;;;;;;3.67;0.68;;;22.30;68.90;;;;;;4976373;28;20133;-67
2022/09/20 10:02:22;;;;;;;6.15;0.70;;;21.90;72.40;;;;;;4976412;28;20046;-67
2022/09/20 10:05:02;;;;;;;5.82;1.15;;;21.20;75.30;;;;;;4976661;28;20511;-67
2022/09/20 10:07:53;;;;;;;5.82;1.15;;;20.70;82.30;;;;;;4976350;28;20077;-68
2022/09/20 10:10:24;;;;;;;4.20;0.60;;;20.00;90.10;;;;;;4976388;28;20053;-67
2022/09/20 10:13:15;;;;;;;4.28;1.20;;;19.30;96.80;;;;;;4976427;28;20439;-67
2022/09/20 10:16:19;;;;;;;4.55;0.70;;;18.60;99.90;;;;;;4965735;28;20050;-67
2022/09/20 10:19:01;;;;;;;4.45;0.80;;;18.10;99.90;;;;;;4931945;28;20478;-67
2022/09/20 10:21:40;;;;;;;4.65;0.85;;;17.40;99.90;;;;;;4976378;28;20100;-67
2022/09/20 10:24:29;;;;;;;4.35;1.02;;;17.00;99.90;;;;;;4976355;28;20046;-67
2022/09/20 10:27:05;;;;;;;6.75;1.25;;;16.80;99.90;;;;;;4976533;28;20085;-67
2022/09/20 10:29:38;;;;;;;3.92;0.70;;;16.50;99.90;;;;;;4993711;28;20050;-67
2022/09/20 10:32:30;;;;;;;4.90;0.50;;;16.40;99.90;;;;;;4976167;28;20515;-67
2022/09/20 10:35:02;;;;;;;7.07;1.00;;;16.30;99.90;;;;;;4960184;28;20046;-67
2022/09/20 10:37:55;;;;;;;7.65;1.15;;;16.10;99.90;;;;;;4976379;28;20092;-67
2022/09/20 10:43:39;;;;;;;5.15;1.00;;;16.00;99.90;;;;;;4956462;28;19917;-67
2022/09/20 10:46:19;;;;;;;5.07;0.75;;;16.00;99.90;;;;;;4960110;28;20046;-67
2022/09/20 10:48:59;;;;;;;4.80;0.63;;;16.10;99.90;;;;;;4994100;28;20057;-67
2022/09/20 10:51:50;;;;;;;3.92;0.88;;;16.10;99.90;;;;;;4959993;28;20113;-67
2022/09/20 10:54:50;;;;;;;6.07;0.82;;;16.30;99.90;;;;;;4976048;28;20054;-67
2022/09/20 10:57:47;;;;;;;4.72;0.80;;;16.40;99.90;;;;;;4975935;28;20495;-67
2022/09/20 11:00:31;;;;;;;4.90;0.70;;;16.50;99.90;;;;;;4976268;28;20077;-67
2022/09/20 11:03:11;;;;;;;4.38;0.77;;;16.70;99.90;;;;;;4975989;28;20078;-67
2022/09/20 11:05:56;;;;;;;3.22;0.65;;;16.80;99.90;;;;;;4975876;28;20208;-67
2022/09/20 11:08:33;;;;;;;5.00;0.90;;;16.90;99.90;;;;;;4975801;28;20050;-67
2022/09/20 11:11:12;;;;;;;6.07;0.70;;;17.00;99.90;;;;;;4977405;28;20043;-70
2022/09/20 11:13:54;;;;;;;6.20;1.23;;;17.10;99.90;;;;;;4979550;28;20573;-70
2022/09/20 11:16:35;;;;;;;5.70;0.90;;;17.20;99.90;;;;;;4979709;28;20046;-69
2022/09/20 11:19:36;;;;;;;5.60;1.05;;;17.30;99.90;;;;;;4979435;28;20418;-69
2022/09/20 11:22:17;;;;;;;7.32;0.95;;;17.50;99.90;;;;;;4963147;28;20050;-69
2022/09/20 11:24:56;;;;;;;11.50;1.02;;;17.70;99.90;;;;;;4979242;28;20411;-69
2022/09/20 11:27:39;;;;;;;3.60;0.63;;;17.90;99.90;;;;;;4979211;28;20491;-69
2022/09/20 11:30:20;;;;;;;10.23;0.95;;;18.10;99.90;;;;;;4979327;28;20042;-69
2022/09/20 11:33:10;;;;;;;7.85;0.95;;;18.30;99.90;;;;;;4963412;28;20034;-67
2022/09/20 11:35:52;;;;;;;7.22;1.05;;;18.50;99.90;;;;;;4979097;28;20081;-67
2022/09/20 11:38:30;;;;;;;5.25;0.73;;;18.70;99.90;;;;;;4979044;28;20058;-67
2022/09/20 11:40:59;;;;;;;5.53;0.77;;;18.90;99.90;;;;;;4979211;28;20495;-67
2022/09/20 11:43:29;;;;;;;4.57;1.15;;;19.30;99.90;;;;;;4979226;28;20047;-67
2022/09/20 11:46:03;;;;;;;9.80;1.00;;;19.80;99.90;;;;;;4996411;28;20044;-67
2022/09/20 11:48:48;;;;;;;5.45;1.05;;;20.30;99.90;;;;;;4978810;28;20101;-67
2022/09/20 11:51:40;;;;;;;3.10;0.88;;;20.80;99.00;;;;;;4978817;28;20403;-67
2022/09/20 11:54:46;;;;;;;5.75;0.85;;;21.30;94.90;;;;;;4959010;28;20517;-67
2022/09/20 11:57:17;;;;;;;4.85;0.80;;;21.50;87.00;;;;;;4978693;28;20053;-68
2022/09/20 11:59:52;;;;;;;4.93;1.08;;;21.70;93.00;;;;;;4978966;28;20053;-67
2022/09/20 12:02:35;;;;;;;6.43;0.80;;;22.00;90.40;;;;;;4978589;28;20466;-67
2022/09/20 12:05:04;;;;;;;4.47;1.00;;;22.30;90.10;;;;;;4962737;28;20038;-67
2022/09/20 12:07:34;;;;;;;5.53;0.85;;;22.60;87.10;;;;;;4978484;28;20042;-67
2022/09/20 12:10:07;;;;;;;5.10;0.77;;;22.50;79.90;;;;;;4978721;28;20116;-67
2022/09/20 12:12:38;;;;;;;4.03;0.90;;;22.10;77.20;;;;;;4978527;28;20046;-67
2022/09/20 12:15:26;;;;;;;3.97;1.00;;;21.60;80.40;;;;;;4978328;28;20084;-68
2022/09/20 12:17:52;;;;;;;7.38;1.45;;;21.10;78.80;;;;;;4978464;28;20050;-68
2022/09/20 12:20:41;;;;;;;5.03;0.80;;;20.50;82.90;;;;;;4978566;28;20065;-68
2022/09/20 12:23:44;;;;;;;7.10;0.90;;;20.00;86.40;;;;;;4978335;28;20053;-68
2022/09/20 12:26:21;;;;;;;3.03;0.75;;;19.50;90.70;;;;;;4978437;28;20045;-68
2022/09/20 12:28:49;;;;;;;3.95;0.90;;;19.10;91.70;;;;;;4978105;28;20514;-68
2022/09/20 12:31:20;;;;;;;5.78;1.00;;;18.80;94.00;;;;;;4978342;28;20045;-68
2022/09/20 12:34:01;;;;;;;5.85;0.70;;;18.60;96.20;;;;;;4978002;28;20049;-68
2022/09/20 12:36:34;;;;;;;6.35;1.08;;;18.40;97.20;;;;;;4978215;28;20045;-68
2022/09/20 12:39:12;;;;;;;7.22;0.95;;;18.30;99.70;;;;;;4978202;28;20549;-68
2022/09/20 12:41:54;;;;;;;5.55;1.08;;;18.30;97.50;;;;;;4977743;28;20050;-68
2022/09/20 12:44:31;;;;;;;5.43;1.02;;;18.30;98.70;;;;;;4977884;28;20042;-67
2022/09/20 12:47:09;;;;;;;6.28;0.90;;;18.30;99.90;;;;;;4977810;28;20495;-67
2022/09/20 12:56:04;;;;;;;7.78;1.45;;;19.30;96.60;;;;;;4977887;28;20113;-67
2022/09/20 12:58:35;;;;;;;6.15;1.08;;;20.10;92.70;;;;;;4977742;28;20557;-68
2022/09/20 13:01:03;;;;;;;5.22;0.82;;;20.40;86.90;;;;;;4977478;28;20050;-68
2022/09/20 13:03:34;;;;;;;5.05;0.75;;;20.50;87.40;;;;;;4977461;28;20046;-68
2022/09/20 13:06:05;;;;;;;6.70;0.73;;;20.80;84.40;;;;;;4977456;28;20057;-67
2022/09/20 13:08:54;;;;;;;7.53;1.05;;;21.20;80.20;;;;;;4977294;28;20038;-68
2022/09/20 13:11:24;;;;;;;4.13;0.80;;;21.60;73.90;;;;;;4977337;28;20042;-68
2022/09/20 13:13:57;;;;;;;4.75;1.10;;;22.00;69.30;;;;;;4977248;28;20092;-68
2022/09/20 13:16:32;;;;;;;5.05;0.80;;;22.20;67.10;;;;;;4976995;28;20419;-68
2022/09/20 13:19:18;;;;;;;5.05;0.82;;;22.50;61.90;;;;;;4994933;28;20057;-68
2022/09/20 13:21:58;;;;;;;4.22;0.70;;;22.70;62.40;;;;;;4977171;28;20053;-67
2022/09/20 13:24:27;;;;;;;5.45;0.80;;;22.80;63.70;;;;;;4977797;28;20043;-68
2022/09/20 13:26:55;;;;;;;6.32;0.60;;;22.40;62.20;;;;;;4977007;28;20046;-68
2022/09/20 13:29:32;;;;;;;4.93;0.68;;;22.00;62.20;;;;;;4977041;28;20039;-67
2022/09/20 13:32:21;;;;;;;6.75;0.60;;;21.60;62.40;;;;;;4977034;28;20053;-68
2022/09/20 13:35:05;;;;;;;4.78;0.52;;;21.20;62.80;;;;;;4976727;28;20414;-70
2022/09/20 13:37:31;;;;;;;4.18;0.77;;;20.90;65.80;;;;;;4976798;28;20051;-70
2022/09/20 13:39:57;;;;;;;5.00;0.70;;;21.00;66.90;;;;;;4977044;28;20045;-70
2022/09/20 13:42:25;;;;;;;5.88;0.85;;;21.20;69.30;;;;;;4976756;28;20057;-69
2022/09/20 13:44:51;;;;;;;3.42;0.60;;;21.50;66.40;;;;;;4976793;28;20045;-69
2022/09/20 13:47:25;;;;;;;5.90;0.85;;;21.70;65.40;;;;;;4976684;28;20038;-70
2022/09/20 13:49:51;;;;;;;2.88;0.45;;;21.90;62.40;;;;;;4976739;28;20129;-70
2022/09/20 13:52:46;;;;;;;4.45;0.40;;;22.00;60.70;;;;;;4976611;28;20054;-70
2022/09/20 13:55:28;;;;;;;5.20;0.60;;;22.10;59.30;;;;;;4976652;28;20045;-71
2022/09/20 13:57:56;;;;;;;4.13;0.40;;;22.30;59.10;;;;;;4976572;28;20050;-70
2022/09/20 14:00:25;;;;;;;4.38;0.55;;;22.30;59.60;;;;;;4976594;28;20053;-70
2022/09/20 14:02:53;;;;;;;3.55;0.50;;;22.30;59.30;;;;;;4976467;28;20122;-70
2022/09/20 14:05:22;;;;;;;3.63;0.40;;;22.40;60.80;;;;;;4976461;28;20042;-70